Time;durP1;ratioP1;P1;durP2;ratioP2;P2;SDS_P1;SDS_P2;PMS_P1;PMS_P2;Temp;Humidity;BMP_temperature;BMP_pressure;BME280_temperature;BME280_humidity;BME280_pressure;Samples;Min_cycle;Max_cycle;Signal;HPM_P1;HPM_P2
2022/07/09 00:01:24;;;;;;;;;;;16.90;99.90;;;;;;5093583;28;20373;-63
2022/07/09 00:03:51;;;;;;;;;;;17.00;99.90;;;;;;5093547;28;19928;-62
2022/07/09 00:06:17;;;;;;;;;;;16.90;99.90;;;;;;5093526;28;20014;-63
2022/07/09 00:08:43;;;;;;;;;;;16.90;99.90;;;;;;5093726;28;19963;-63
2022/07/09 00:11:08;;;;;;;;;;;17.10;99.90;;;;;;5093589;28;19920;-63
2022/07/09 00:13:34;;;;;;;;;;;17.10;99.90;;;;;;5093325;28;19931;-63
2022/07/09 00:15:59;;;;;;;;;;;17.20;99.90;;;;;;5092993;28;20007;-62
2022/07/09 00:18:25;;;;;;;;;;;17.20;99.90;;;;;;5093343;28;19965;-63
2022/07/09 00:20:50;;;;;;;;;;;17.00;99.90;;;;;;5093201;28;19924;-63
2022/07/09 00:23:16;;;;;;;;;;;17.00;99.90;;;;;;5093177;28;20375;-63
2022/07/09 00:25:42;;;;;;;;;;;16.90;99.90;;;;;;5093149;28;20286;-62
2022/07/09 00:28:07;;;;;;;;;;;17.10;99.90;;;;;;5093124;28;20363;-64
2022/07/09 00:30:33;;;;;;;;;;;17.00;99.90;;;;;;5093106;28;20286;-63
2022/07/09 00:32:58;;;;;;;;;;;17.10;99.90;;;;;;5092541;28;19926;-63
2022/07/09 00:35:24;;;;;;;;;;;16.80;99.90;;;;;;5092925;28;19977;-63
2022/07/09 00:37:50;;;;;;;;;;;17.00;99.90;;;;;;5092908;28;20006;-62
2022/07/09 00:40:15;;;;;;;;;;;16.80;99.90;;;;;;5091571;28;19970;-62
2022/07/09 00:42:41;;;;;;;;;;;17.10;99.90;;;;;;5092529;28;19920;-62
2022/07/09 00:45:06;;;;;;;;;;;16.90;99.90;;;;;;5092812;28;19931;-62
2022/07/09 00:47:32;;;;;;;;;;;17.10;99.90;;;;;;5092803;28;20332;-62
2022/07/09 00:49:58;;;;;;;;;;;16.90;99.90;;;;;;5091466;28;20302;-62
2022/07/09 00:52:23;;;;;;;;;;;17.00;99.90;;;;;;5092685;28;19924;-62
2022/07/09 00:54:49;;;;;;;;;;;17.20;99.90;;;;;;5092722;28;19924;-63
2022/07/09 00:57:15;;;;;;;;;;;17.00;99.90;;;;;;5092664;28;20389;-63
2022/07/09 00:59:41;;;;;;;;;;;17.00;99.90;;;;;;5092617;28;19943;-62
2022/07/09 01:02:07;;;;;;;;;;;16.80;99.90;;;;;;5092588;28;20364;-62
2022/07/09 01:04:33;;;;;;;;;;;16.80;99.90;;;;;;5092631;28;19920;-62
2022/07/09 01:06:59;;;;;;;;;;;16.70;99.90;;;;;;5091286;28;20036;-62
2022/07/09 01:09:25;;;;;;;;;;;17.30;99.90;;;;;;5092552;28;19932;-64
2022/07/09 01:11:51;;;;;;;;;;;17.10;99.90;;;;;;5092499;28;19926;-63
2022/07/09 01:14:17;;;;;;;;;;;17.00;99.90;;;;;;5092429;28;20362;-62
2022/07/09 01:16:42;;;;;;;;;;;16.90;99.90;;;;;;5092436;28;19924;-62
2022/07/09 01:19:08;;;;;;;;;;;16.90;99.90;;;;;;5092404;28;19927;-63
2022/07/09 01:21:34;;;;;;;;;;;17.20;99.90;;;;;;5092385;28;20348;-62
2022/07/09 01:24:00;;;;;;;;;;;16.90;99.90;;;;;;5092363;28;20328;-63
2022/07/09 01:26:26;;;;;;;;;;;16.90;99.90;;;;;;5092367;28;19924;-65
2022/07/09 01:28:51;;;;;;;;;;;16.70;99.90;;;;;;5094213;28;19920;-63
2022/07/09 01:31:17;;;;;;;;;;;16.80;99.90;;;;;;5096323;28;20048;-63
2022/07/09 01:33:43;;;;;;;;;;;17.00;99.90;;;;;;5096459;28;20401;-63
2022/07/09 01:36:08;;;;;;;;;;;19.30;99.90;;;;;;5096428;28;20453;-63
2022/07/09 01:38:34;;;;;;;;;;;17.00;99.90;;;;;;5096358;28;20395;-62
2022/07/09 01:41:00;;;;;;;;;;;17.00;99.90;;;;;;5096338;28;19920;-62
2022/07/09 01:43:25;;;;;;;;;;;17.00;99.90;;;;;;5095209;28;19980;-62
2022/07/09 01:45:51;;;;;;;;;;;17.10;99.90;;;;;;5096210;28;19998;-62
2022/07/09 01:48:17;;;;;;;;;;;17.00;99.90;;;;;;5096184;28;20397;-64
2022/07/09 01:50:42;;;;;;;;;;;16.80;99.90;;;;;;5095859;28;19982;-65
2022/07/09 01:53:08;;;;;;;;;;;16.90;99.90;;;;;;5096002;28;20031;-63
2022/07/09 01:55:33;;;;;;;;;;;17.00;99.90;;;;;;5096067;28;19919;-62
2022/07/09 01:57:59;;;;;;;;;;;16.90;99.90;;;;;;5096028;28;19978;-62
2022/07/09 02:00:27;;;;;;;;;;;16.70;99.90;;;;;;5095838;28;20014;-62
2022/07/09 02:02:53;;;;;;;;;;;17.00;99.90;;;;;;5096221;28;19924;-63
2022/07/09 02:05:19;;;;;;;;;;;17.10;99.90;;;;;;5095928;28;19920;-62
2022/07/09 02:07:45;;;;;;;;;;;17.00;99.90;;;;;;5095537;28;20300;-62
2022/07/09 02:10:10;;;;;;;;;;;16.90;99.90;;;;;;5095786;28;19927;-62
2022/07/09 02:12:36;;;;;;;;;;;17.10;99.90;;;;;;5095372;28;20367;-62
2022/07/09 02:15:01;;;;;;;;;;;17.00;99.90;;;;;;5095692;28;19920;-62
2022/07/09 02:17:27;;;;;;;;;;;17.00;99.90;;;;;;5095664;28;20037;-62
2022/07/09 02:19:53;;;;;;;;;;;16.90;99.90;;;;;;5095629;28;19931;-63
2022/07/09 02:22:18;;;;;;;;;;;17.00;99.90;;;;;;5095841;28;19924;-63
2022/07/09 02:24:44;;;;;;;;;;;16.70;99.90;;;;;;5095465;28;19924;-62
2022/07/09 02:27:09;;;;;;;;;;;17.30;99.90;;;;;;5095378;28;19924;-63
2022/07/09 02:29:35;;;;;;;;;;;16.80;99.90;;;;;;5095408;28;19931;-62
2022/07/09 02:32:00;;;;;;;;;;;16.90;99.90;;;;;;5095170;28;19920;-62
2022/07/09 02:34:26;;;;;;;;;;;17.00;99.90;;;;;;5095296;28;19919;-61
2022/07/09 02:36:52;;;;;;;;;;;16.90;99.90;;;;;;5095258;28;19920;-61
2022/07/09 02:39:17;;;;;;;;;;;16.70;99.90;;;;;;5095042;28;20367;-62
2022/07/09 02:41:43;;;;;;;;;;;16.80;99.90;;;;;;5093952;28;19924;-62
2022/07/09 02:44:09;;;;;;;;;;;16.70;99.90;;;;;;5093774;28;19924;-62
2022/07/09 02:46:34;;;;;;;;;;;16.70;99.90;;;;;;5095079;28;19931;-62
2022/07/09 02:49:00;;;;;;;;;;;16.70;99.90;;;;;;5095032;28;20076;-62
2022/07/09 02:51:25;;;;;;;;;;;16.80;99.90;;;;;;5095249;28;19924;-63
2022/07/09 02:53:51;;;;;;;;;;;16.70;99.90;;;;;;5094561;28;19963;-63
2022/07/09 02:56:16;;;;;;;;;;;17.00;99.90;;;;;;5094863;28;19927;-61
2022/07/09 02:58:42;;;;;;;;;;;16.80;99.90;;;;;;5094804;28;20407;-62
2022/07/09 03:01:07;;;;;;;;;;;16.80;99.90;;;;;;5094728;28;20450;-62
2022/07/09 03:03:35;;;;;;;;;;;16.80;99.90;;;;;;5094652;28;19931;-62
2022/07/09 03:06:01;;;;;;;;;;;16.60;99.90;;;;;;5094671;28;19920;-62
2022/07/09 03:08:27;;;;;;;;;;;16.70;99.90;;;;;;5094620;28;19924;-63
2022/07/09 03:10:52;;;;;;;;;;;16.60;99.90;;;;;;5094851;28;19927;-62
2022/07/09 03:13:18;;;;;;;;;;;16.70;99.90;;;;;;5094466;28;19924;-62
2022/07/09 03:15:43;;;;;;;;;;;16.20;99.90;;;;;;5094434;28;20014;-63
2022/07/09 03:18:09;;;;;;;;;;;16.40;99.90;;;;;;5094471;28;19920;-62
2022/07/09 03:20:35;;;;;;;;;;;16.40;99.90;;;;;;5094460;28;19977;-62
2022/07/09 03:23:01;;;;;;;;;;;16.40;99.90;;;;;;5094442;28;20334;-62
2022/07/09 03:25:27;;;;;;;;;;;16.40;99.90;;;;;;5094289;28;20413;-61
2022/07/09 03:27:53;;;;;;;;;;;16.50;99.90;;;;;;5093974;28;19924;-62
2022/07/09 03:30:18;;;;;;;;;;;16.40;99.90;;;;;;5094229;28;19930;-62
2022/07/09 03:32:44;;;;;;;;;;;16.70;99.90;;;;;;5093634;28;19924;-62
2022/07/09 03:35:10;;;;;;;;;;;16.30;99.90;;;;;;5094070;28;19924;-62
2022/07/09 03:37:35;;;;;;;;;;;16.00;99.90;;;;;;5094055;28;20002;-62
2022/07/09 03:40:02;;;;;;;;;;;16.40;99.90;;;;;;5093975;28;19920;-62
2022/07/09 03:42:27;;;;;;;;;;;16.80;99.90;;;;;;5093958;28;19920;-62
2022/07/09 03:44:53;;;;;;;;;;;16.50;99.90;;;;;;5093900;28;20372;-62
2022/07/09 03:47:19;;;;;;;;;;;16.30;99.90;;;;;;5093864;28;19924;-64
2022/07/09 03:49:44;;;;;;;;;;;16.50;99.90;;;;;;5093917;28;20368;-62
2022/07/09 03:52:10;;;;;;;;;;;16.60;99.90;;;;;;5092176;28;19920;-62
2022/07/09 03:54:35;;;;;;;;;;;16.50;99.90;;;;;;5093871;28;19927;-62
2022/07/09 03:57:01;;;;;;;;;;;16.30;99.90;;;;;;5093773;28;19920;-62
2022/07/09 03:59:26;;;;;;;;;;;16.50;99.90;;;;;;5093617;28;19942;-62
2022/07/09 04:01:52;;;;;;;;;;;16.70;99.90;;;;;;5093586;28;20010;-62
2022/07/09 04:04:17;;;;;;;;;;;16.80;99.90;;;;;;5092585;28;20395;-62
2022/07/09 04:06:43;;;;;;;;;;;16.50;99.90;;;;;;5093812;28;19920;-61
2022/07/09 04:09:08;;;;;;;;;;;16.40;99.90;;;;;;5093483;28;19924;-61
2022/07/09 04:11:34;;;;;;;;;;;16.30;99.90;;;;;;5093389;28;19928;-64
2022/07/09 04:14:00;;;;;;;;;;;16.40;99.90;;;;;;5093326;28;19928;-63
2022/07/09 04:16:26;;;;;;;;;;;16.70;99.90;;;;;;5093327;28;19969;-62
2022/07/09 04:18:52;;;;;;;;;;;16.50;99.90;;;;;;5093297;28;20279;-62
2022/07/09 04:21:17;;;;;;;;;;;16.40;99.90;;;;;;5093215;28;20409;-62
2022/07/09 04:23:43;;;;;;;;;;;16.20;99.90;;;;;;5093212;28;20280;-62
2022/07/09 04:26:09;;;;;;;;;;;16.00;99.90;;;;;;5093106;28;19920;-62
2022/07/09 04:28:37;;;;;;;;;;;16.40;99.90;;;;;;5092978;28;19927;-63
2022/07/09 04:31:03;;;;;;;;;;;16.50;99.90;;;;;;5092883;28;20320;-63
2022/07/09 04:33:29;;;;;;;;;;;16.70;99.90;;;;;;5092987;28;19920;-62
2022/07/09 04:35:55;;;;;;;;;;;16.70;99.90;;;;;;5092983;28;19989;-62
2022/07/09 04:38:21;;;;;;;;;;;16.70;99.90;;;;;;5092969;28;19920;-62
2022/07/09 04:40:46;;;;;;;;;;;16.80;99.90;;;;;;5092995;28;20000;-62
2022/07/09 04:43:12;;;;;;;;;;;17.00;99.90;;;;;;5092904;28;20376;-63
2022/07/09 04:45:37;;;;;;;;;;;17.00;99.90;;;;;;5092772;28;19920;-62
2022/07/09 04:48:03;;;;;;;;;;;16.80;99.90;;;;;;5092794;28;20267;-62
2022/07/09 04:50:29;;;;;;;;;;;17.10;99.90;;;;;;5092806;28;20020;-62
2022/07/09 04:52:54;;;;;;;;;;;16.80;99.90;;;;;;5092651;28;19996;-62
2022/07/09 04:55:21;;;;;;;;;;;16.70;99.90;;;;;;5092969;28;20022;-63
2022/07/09 04:57:47;;;;;;;;;;;17.10;99.90;;;;;;5092772;28;20284;-62
2022/07/09 05:00:13;;;;;;;;;;;17.50;99.90;;;;;;5092711;28;19920;-62
2022/07/09 05:02:38;;;;;;;;;;;17.20;99.90;;;;;;5091792;28;20376;-63
2022/07/09 05:05:06;;;;;;;;;;;16.90;99.90;;;;;;5092487;28;19975;-62
2022/07/09 05:07:32;;;;;;;;;;;17.20;99.90;;;;;;5092557;28;19928;-61
2022/07/09 05:09:57;;;;;;;;;;;17.10;99.90;;;;;;5092200;28;20008;-62
2022/07/09 05:12:23;;;;;;;;;;;17.10;99.90;;;;;;5092740;28;19920;-61
2022/07/09 05:14:48;;;;;;;;;;;16.90;99.90;;;;;;5092544;28;20364;-62
2022/07/09 05:17:14;;;;;;;;;;;17.20;99.90;;;;;;5092502;28;20394;-62
2022/07/09 05:19:40;;;;;;;;;;;17.90;99.90;;;;;;5092409;28;19924;-62
2022/07/09 05:22:05;;;;;;;;;;;17.10;99.90;;;;;;5092422;28;19969;-63
2022/07/09 05:24:31;;;;;;;;;;;17.20;99.90;;;;;;5092386;28;19986;-62
2022/07/09 05:26:56;;;;;;;;;;;17.40;99.90;;;;;;5092397;28;20015;-62
2022/07/09 05:29:22;;;;;;;;;;;17.70;99.90;;;;;;5092326;28;19999;-62
2022/07/09 05:31:48;;;;;;;;;;;17.70;99.90;;;;;;5091803;28;19943;-62
2022/07/09 05:34:15;;;;;;;;;;;17.30;99.90;;;;;;5092279;28;19973;-62
2022/07/09 05:36:40;;;;;;;;;;;17.40;99.90;;;;;;5092298;28;19931;-63
2022/07/09 05:39:07;;;;;;;;;;;17.70;99.90;;;;;;5092267;28;19920;-63
2022/07/09 05:41:32;;;;;;;;;;;17.50;99.90;;;;;;5092337;28;19989;-62
2022/07/09 05:43:58;;;;;;;;;;;17.40;99.90;;;;;;5092557;28;19975;-62
2022/07/09 05:46:24;;;;;;;;;;;17.70;99.90;;;;;;5092226;28;19927;-61
2022/07/09 05:48:50;;;;;;;;;;;17.40;99.90;;;;;;5091938;28;19920;-62
2022/07/09 05:51:16;;;;;;;;;;;17.60;99.90;;;;;;5092192;28;19978;-63
2022/07/09 05:53:41;;;;;;;;;;;17.30;99.90;;;;;;5091743;28;19971;-62
2022/07/09 05:56:07;;;;;;;;;;;17.50;99.90;;;;;;5092127;28;19920;-62
2022/07/09 05:58:33;;;;;;;;;;;17.60;99.90;;;;;;5092112;28;19965;-62
2022/07/09 06:00:58;;;;;;;;;;;17.70;99.90;;;;;;5091092;28;19969;-62
2022/07/09 06:03:24;;;;;;;;;;;17.50;99.90;;;;;;5091068;28;19920;-61
2022/07/09 06:05:49;;;;;;;;;;;17.80;99.90;;;;;;5092098;28;19982;-62
2022/07/09 06:08:15;;;;;;;;;;;17.80;99.90;;;;;;5092031;28;19982;-62
2022/07/09 06:10:40;;;;;;;;;;;17.80;99.90;;;;;;5092008;28;19969;-62
2022/07/09 06:13:06;;;;;;;;;;;18.10;99.90;;;;;;5091891;28;19920;-62
2022/07/09 06:15:32;;;;;;;;;;;17.90;99.90;;;;;;5094717;28;19977;-62
2022/07/09 06:17:57;;;;;;;;;;;18.20;99.90;;;;;;5095687;28;19942;-63
2022/07/09 06:20:23;;;;;;;;;;;18.10;99.90;;;;;;5095650;28;19992;-62
2022/07/09 06:22:48;;;;;;;;;;;18.00;99.90;;;;;;5095574;28;19920;-63
2022/07/09 06:25:14;;;;;;;;;;;17.70;99.90;;;;;;5095539;28;19927;-62
2022/07/09 06:27:42;;;;;;;;;;;17.70;99.90;;;;;;5095545;28;19941;-62
2022/07/09 06:30:08;;;;;;;;;;;18.10;99.90;;;;;;5095484;28;19927;-63
2022/07/09 06:32:34;;;;;;;;;;;17.70;99.90;;;;;;5094868;28;19920;-63
2022/07/09 06:35:00;;;;;;;;;;;17.80;99.90;;;;;;5095344;28;19974;-62
2022/07/09 06:37:25;;;;;;;;;;;18.00;99.90;;;;;;5094963;28;20354;-62
2022/07/09 06:39:55;;;;;;;;;;;17.70;99.90;;;;;;5094919;28;19998;-64
2022/07/09 06:42:21;;;;;;;;;;;17.70;99.90;;;;;;5095199;28;19943;-62
2022/07/09 06:44:47;;;;;;;;;;;18.10;99.90;;;;;;5095143;28;19924;-62
2022/07/09 06:47:13;;;;;;;;;;;17.80;99.90;;;;;;5095080;28;19995;-61
2022/07/09 06:49:39;;;;;;;;;;;17.80;99.90;;;;;;5094708;28;20065;-62
2022/07/09 06:52:04;;;;;;;;;;;17.90;99.90;;;;;;5095040;28;20015;-63
2022/07/09 06:54:30;;;;;;;;;;;18.10;99.90;;;;;;5094892;28;19972;-62
2022/07/09 06:56:59;;;;;;;;;;;18.10;99.90;;;;;;5095031;28;19930;-62
2022/07/09 06:59:24;;;;;;;;;;;18.10;99.90;;;;;;5094877;28;19920;-61
2022/07/09 07:01:50;;;;;;;;;;;17.80;99.90;;;;;;5094867;28;20360;-64
2022/07/09 07:04:16;;;;;;;;;;;18.30;99.90;;;;;;5093550;28;19920;-62
2022/07/09 07:06:42;;;;;;;;;;;18.30;99.90;;;;;;5095003;28;20033;-62
2022/07/09 07:09:08;;;;;;;;;;;18.40;99.90;;;;;;5094754;28;20006;-62
2022/07/09 07:11:33;;;;;;;;;;;18.50;99.90;;;;;;5094687;28;19981;-61
2022/07/09 07:13:59;;;;;;;;;;;18.10;99.90;;;;;;5094542;28;20072;-62
2022/07/09 07:16:25;;;;;;;;;;;18.10;99.90;;;;;;5094534;28;19924;-62
2022/07/09 07:18:50;;;;;;;;;;;18.10;99.90;;;;;;5094064;28;19924;-62
2022/07/09 07:21:16;;;;;;;;;;;18.30;99.90;;;;;;5094474;28;19932;-63
2022/07/09 07:23:41;;;;;;;;;;;18.50;99.90;;;;;;5094417;28;19931;-63
2022/07/09 07:26:07;;;;;;;;;;;18.20;99.90;;;;;;5093189;28;20073;-62
2022/07/09 07:28:33;;;;;;;;;;;18.80;99.90;;;;;;5094369;28;19924;-62
2022/07/09 07:30:59;;;;;;;;;;;18.80;99.90;;;;;;5094350;28;19927;-62
2022/07/09 07:33:25;;;;;;;;;;;19.10;99.90;;;;;;5094128;28;20316;-62
2022/07/09 07:35:50;;;;;;;;;;;18.90;99.90;;;;;;5094138;28;19920;-62
2022/07/09 07:38:16;;;;;;;;;;;19.20;99.90;;;;;;5094510;28;20087;-62
2022/07/09 07:40:42;;;;;;;;;;;18.80;99.90;;;;;;5094162;28;19968;-62
2022/07/09 07:43:10;;;;;;;;;;;19.20;99.90;;;;;;5094031;28;19930;-63
2022/07/09 07:45:35;;;;;;;;;;;19.00;99.90;;;;;;5093002;28;19926;-63
2022/07/09 07:48:01;;;;;;;;;;;19.10;99.90;;;;;;5093956;28;20035;-63
2022/07/09 07:50:27;;;;;;;;;;;18.80;99.90;;;;;;5092661;28;19924;-62
2022/07/09 07:52:52;;;;;;;;;;;18.90;99.90;;;;;;5092690;28;20384;-62
2022/07/09 07:55:18;;;;;;;;;;;19.10;99.90;;;;;;5092750;28;19924;-64
2022/07/09 07:57:43;;;;;;;;;;;19.10;99.90;;;;;;5093803;28;19943;-63
2022/07/09 08:00:09;;;;;;;;;;;18.90;99.90;;;;;;5093668;28;19965;-65
2022/07/09 08:02:35;;;;;;;;;;;18.80;99.90;;;;;;5093695;28;19977;-62
2022/07/09 08:05:01;;;;;;;;;;;18.60;99.90;;;;;;5093701;28;19972;-63
2022/07/09 08:07:26;;;;;;;;;;;18.70;99.90;;;;;;5093625;28;20269;-63
2022/07/09 08:09:52;;;;;;;;;;;19.00;99.90;;;;;;5093527;28;20394;-64
2022/07/09 08:12:18;;;;;;;;;;;18.60;99.90;;;;;;5093375;28;20332;-62
2022/07/09 08:14:44;;;;;;;;;;;18.60;99.90;;;;;;5093457;28;19924;-64
2022/07/09 08:17:09;;;;;;;;;;;18.40;99.90;;;;;;5093405;28;19931;-64
2022/07/09 08:19:35;;;;;;;;;;;18.50;99.90;;;;;;5093381;28;19924;-63
2022/07/09 08:22:00;;;;;;;;;;;18.70;99.90;;;;;;5092054;28;20367;-63
2022/07/09 08:24:26;;;;;;;;;;;18.60;99.90;;;;;;5093323;28;19920;-63
2022/07/09 08:26:52;;;;;;;;;;;18.60;99.90;;;;;;5093291;28;19923;-62
2022/07/09 08:29:18;;;;;;;;;;;18.70;99.90;;;;;;5093169;28;20241;-62
2022/07/09 08:31:43;;;;;;;;;;;18.80;99.90;;;;;;5092917;28;20314;-62
2022/07/09 08:34:09;;;;;;;;;;;20.90;99.90;;;;;;5091517;28;19920;-63
2022/07/09 08:36:34;;;;;;;;;;;19.30;99.90;;;;;;5092755;28;19989;-62
2022/07/09 08:39:00;;;;;;;;;;;19.50;99.90;;;;;;5092839;28;19924;-63
2022/07/09 08:41:25;;;;;;;;;;;19.50;99.90;;;;;;5093235;28;19928;-63
2022/07/09 08:43:51;;;;;;;;;;;19.00;99.90;;;;;;5091971;28;20275;-64
2022/07/09 08:46:18;;;;;;;;;;;19.00;99.90;;;;;;5091927;28;19920;-63
2022/07/09 08:48:44;;;;;;;;;;;19.40;99.90;;;;;;5092899;28;19924;-62
2022/07/09 08:51:10;;;;;;;;;;;19.60;99.90;;;;;;5092800;28;19959;-61
2022/07/09 08:53:40;;;;;;;;;;;19.90;99.90;;;;;;5092701;28;20020;-64
2022/07/09 08:56:05;;;;;;;;;;;19.80;99.90;;;;;;5092775;28;19924;-63
2022/07/09 08:58:31;;;;;;;;;;;19.70;99.90;;;;;;5092757;28;19927;-63
2022/07/09 09:00:58;;;;;;;;;;;19.70;99.90;;;;;;5092738;28;19924;-63
2022/07/09 09:03:24;;;;;;;;;;;19.70;99.90;;;;;;5092681;28;19924;-61
2022/07/09 09:06:03;;;;;;;;;;;19.30;99.90;;;;;;5092682;28;19920;-62
2022/07/09 09:08:33;;;;;;;;;;;19.40;99.90;;;;;;5074724;28;20427;-63
2022/07/09 09:10:58;;;;;;;;;;;19.90;99.90;;;;;;5092585;28;19924;-62
2022/07/09 09:13:24;;;;;;;;;;;19.80;99.90;;;;;;5092313;28;20280;-62
2022/07/09 09:15:50;;;;;;;;;;;19.90;99.90;;;;;;5092491;28;19974;-61
2022/07/09 09:18:16;;;;;;;;;;;20.10;99.90;;;;;;5092508;28;19920;-62
2022/07/09 09:20:45;;;;;;;;;;;19.80;99.90;;;;;;5092526;28;19931;-62
2022/07/09 09:23:15;;;;;;;;;;;19.90;99.90;;;;;;5092512;28;20014;-62
2022/07/09 09:25:41;;;;;;;;;;;20.30;99.90;;;;;;5092425;28;20379;-62
2022/07/09 09:28:07;;;;;;;;;;;20.20;99.90;;;;;;5091759;28;19920;-62
2022/07/09 09:30:40;;;;;;;;;;;20.10;99.90;;;;;;5092483;28;19920;-62
2022/07/09 09:33:05;;;;;;;;;;;19.90;99.90;;;;;;5092405;28;20348;-62
2022/07/09 09:35:35;;;;;;;;;;;20.10;99.90;;;;;;5092395;28;20007;-63
2022/07/09 09:38:00;;;;;;;;;;;20.30;99.90;;;;;;5091093;28;20026;-61
2022/07/09 09:40:26;;;;;;;;;;;20.20;99.90;;;;;;5091032;28;20007;-62
2022/07/09 09:42:58;;;;;;;;;;;19.80;99.90;;;;;;5092263;28;19927;-62
2022/07/09 09:45:24;;;;;;;;;;;19.10;99.90;;;;;;5092343;28;20306;-65
2022/07/09 09:47:50;;;;;;;;;;;18.50;99.90;;;;;;5092226;28;19931;-65
2022/07/09 09:50:17;;;;;;;;;;;18.30;99.90;;;;;;5094779;28;19927;-63
2022/07/09 09:52:43;;;;;;;;;;;17.60;99.90;;;;;;5096194;28;20288;-63
2022/07/09 09:55:09;;;;;;;;;;;17.50;99.90;;;;;;5096158;28;19932;-64
2022/07/09 09:57:36;;;;;;;;;;;17.50;99.90;;;;;;5096154;28;19939;-66
2022/07/09 10:00:02;;;;;;;;;;;17.90;99.90;;;;;;5096066;28;20347;-63
2022/07/09 10:02:28;;;;;;;;;;;17.30;99.90;;;;;;5096118;28;19920;-63
2022/07/09 10:04:54;;;;;;;;;;;17.60;99.90;;;;;;5096031;28;19923;-64
2022/07/09 10:07:20;;;;;;;;;;;17.60;99.90;;;;;;5095913;28;19920;-65
2022/07/09 10:09:58;;;;;;;;;;;17.90;99.90;;;;;;5095963;28;20031;-64
2022/07/09 10:12:27;;;;;;;;;;;17.90;99.90;;;;;;5095810;28;19924;-64
2022/07/09 10:14:53;;;;;;;;;;;18.40;99.90;;;;;;5095495;28;19920;-63
2022/07/09 10:17:18;;;;;;;;;;;18.60;99.90;;;;;;5095759;28;20348;-64
2022/07/09 10:19:57;;;;;;;;;;;18.40;99.90;;;;;;5095650;28;19924;-64
2022/07/09 10:22:42;;;;;;;;;;;18.40;99.90;;;;;;5095593;28;19920;-66
2022/07/09 10:25:08;;;;;;;;;;;18.80;99.90;;;;;;5095544;28;19924;-64
2022/07/09 10:27:44;;;;;;;;;;;18.70;99.90;;;;;;5095541;28;19974;-64
2022/07/09 10:30:24;;;;;;;;;;;19.40;99.90;;;;;;5095503;28;19931;-63
2022/07/09 10:33:19;;;;;;;;;;;19.20;99.90;;;;;;5095328;28;19924;-63
2022/07/09 10:35:49;;;;;;;;;;;19.30;99.90;;;;;;5081427;28;20416;-63
2022/07/09 10:38:16;;;;;;;;;;;19.00;99.90;;;;;;5095317;28;20018;-65
2022/07/09 10:40:45;;;;;;;;;;;18.80;99.90;;;;;;5095305;28;20011;-63
2022/07/09 10:43:12;;;;;;;;;;;19.20;99.90;;;;;;5095185;28;19965;-63
2022/07/09 10:45:41;;;;;;;;;;;19.10;99.90;;;;;;5095165;28;19920;-61
2022/07/09 10:48:08;;;;;;;;;;;19.50;99.90;;;;;;5094184;28;20318;-62
2022/07/09 10:50:37;;;;;;;;;;;19.60;99.90;;;;;;5094817;28;20261;-65
2022/07/09 10:53:03;;;;;;;;;;;19.30;99.90;;;;;;5094709;28;19967;-63
2022/07/09 10:55:29;;;;;;;;;;;19.40;99.90;;;;;;5094893;28;19994;-64
2022/07/09 10:57:55;;;;;;;;;;;19.30;99.90;;;;;;5095017;28;19923;-64
2022/07/09 11:00:25;;;;;;;;;;;19.40;99.90;;;;;;5094827;28;19920;-64
2022/07/09 11:02:58;;;;;;;;;;;19.10;99.90;;;;;;5095214;28;19927;-64
2022/07/09 11:05:24;;;;;;;;;;;19.10;99.90;;;;;;5094852;28;19924;-64
2022/07/09 11:07:53;;;;;;;;;;;19.20;99.90;;;;;;5094747;28;19924;-64
2022/07/09 11:10:22;;;;;;;;;;;18.90;99.90;;;;;;5094761;28;19924;-64
2022/07/09 11:12:48;;;;;;;;;;;19.30;99.90;;;;;;5094334;28;19927;-63
2022/07/09 11:15:17;;;;;;;;;;;19.30;99.90;;;;;;5094716;28;20368;-62
2022/07/09 11:17:43;;;;;;;;;;;19.20;99.90;;;;;;5094788;28;20019;-66
2022/07/09 11:20:12;;;;;;;;;;;19.20;99.90;;;;;;5094759;28;20002;-63
2022/07/09 11:22:37;;;;;;;;;;;19.30;99.90;;;;;;5094581;28;20013;-61
2022/07/09 11:25:03;;;;;;;;;;;19.30;99.90;;;;;;5093232;28;19966;-63
2022/07/09 11:27:29;;;;;;;;;;;20.00;99.90;;;;;;5094375;28;19919;-62
2022/07/09 11:29:54;;;;;;;;;;;19.80;99.90;;;;;;5094357;28;19924;-63
2022/07/09 11:32:20;;;;;;;;;;;19.70;99.90;;;;;;5094228;28;19931;-64
2022/07/09 11:34:49;;;;;;;;;;;20.10;99.90;;;;;;5094281;28;19923;-65
2022/07/09 11:37:22;;;;;;;;;;;20.00;99.90;;;;;;5094260;28;20025;-65
2022/07/09 11:39:50;;;;;;;;;;;20.20;99.90;;;;;;5094227;28;19920;-63
2022/07/09 11:42:20;;;;;;;;;;;19.70;99.90;;;;;;5094101;28;20026;-66
2022/07/09 11:44:55;;;;;;;;;;;20.10;99.90;;;;;;5094151;28;20352;-63
2022/07/09 11:47:31;;;;;;;;;;;19.60;99.90;;;;;;5094036;28;19924;-64
2022/07/09 11:50:04;;;;;;;;;;;20.00;99.90;;;;;;5094083;28;20367;-63
2022/07/09 11:52:29;;;;;;;;;;;19.80;99.90;;;;;;5093942;28;19927;-63
2022/07/09 11:54:55;;;;;;;;;;;19.40;99.90;;;;;;5093943;28;19928;-65
2022/07/09 11:57:21;;;;;;;;;;;19.20;99.90;;;;;;5093791;28;19938;-63
2022/07/09 11:59:47;;;;;;;;;;;19.50;99.90;;;;;;5093751;28;19928;-65
2022/07/09 12:02:22;;;;;;;;;;;19.30;99.90;;;;;;5093839;28;19920;-64
2022/07/09 12:04:47;;;;;;;;;;;19.30;99.90;;;;;;5092738;28;19989;-64
2022/07/09 12:07:13;;;;;;;;;;;19.80;99.90;;;;;;5093743;28;19919;-65
2022/07/09 12:09:38;;;;;;;;;;;19.50;99.90;;;;;;5092407;28;19920;-61
2022/07/09 12:12:04;;;;;;;;;;;19.80;99.90;;;;;;5093070;28;19927;-61
2022/07/09 12:14:30;;;;;;;;;;;19.70;99.90;;;;;;5093752;28;19923;-63
2022/07/09 12:16:56;;;;;;;;;;;19.50;99.90;;;;;;5092488;28;20387;-65
2022/07/09 12:19:22;;;;;;;;;;;19.40;99.90;;;;;;5092204;28;19920;-65
2022/07/09 12:21:48;;;;;;;;;;;19.40;99.90;;;;;;5092118;28;19931;-63
2022/07/09 12:24:13;;;;;;;;;;;19.30;99.90;;;;;;5093340;28;19928;-64
2022/07/09 12:26:39;;;;;;;;;;;19.20;99.90;;;;;;5093296;28;19931;-64
2022/07/09 12:29:04;;;;;;;;;;;19.40;99.90;;;;;;5093288;28;19924;-63
2022/07/09 12:31:30;;;;;;;;;;;19.50;99.90;;;;;;5092984;28;19924;-64
2022/07/09 12:33:55;;;;;;;;;;;19.40;99.90;;;;;;5093112;28;19993;-66
2022/07/09 12:36:21;;;;;;;;;;;19.20;99.90;;;;;;5093186;28;20408;-64
2022/07/09 12:38:46;;;;;;;;;;;19.70;99.90;;;;;;5093388;28;20360;-64
2022/07/09 12:41:12;;;;;;;;;;;19.60;99.90;;;;;;5093022;28;19920;-63
2022/07/09 12:43:37;;;;;;;;;;;19.10;99.90;;;;;;5092958;28;19919;-63
2022/07/09 12:46:03;;;;;;;;;;;19.50;99.90;;;;;;5092919;28;20030;-62
2022/07/09 12:48:29;;;;;;;;;;;19.60;99.90;;;;;;5091925;28;19943;-65
2022/07/09 12:50:54;;;;;;;;;;;19.70;99.90;;;;;;5092807;28;19928;-64
2022/07/09 12:53:20;;;;;;;;;;;19.60;99.90;;;;;;5091734;28;19931;-64
2022/07/09 12:55:47;;;;;;;;;;;19.50;99.90;;;;;;5092882;28;19930;-64
2022/07/09 12:58:12;;;;;;;;;;;20.20;99.90;;;;;;5091740;28;19920;-64
2022/07/09 13:00:38;;;;;;;;;;;20.20;99.90;;;;;;5092723;28;20375;-64
2022/07/09 13:03:03;;;;;;;;;;;19.90;99.90;;;;;;5092708;28;19980;-63
2022/07/09 13:05:29;;;;;;;;;;;19.30;99.90;;;;;;5092643;28;20018;-64
2022/07/09 13:07:55;;;;;;;;;;;20.40;99.90;;;;;;5092694;28;19931;-64
2022/07/09 13:10:20;;;;;;;;;;;19.80;99.90;;;;;;5091619;28;20068;-64
2022/07/09 13:12:47;;;;;;;;;;;20.00;99.90;;;;;;5092707;28;19930;-68
2022/07/09 13:15:13;;;;;;;;;;;19.80;99.90;;;;;;5092594;28;19927;-64
2022/07/09 13:17:39;;;;;;;;;;;19.80;99.90;;;;;;5092519;28;19920;-65
2022/07/09 13:20:05;;;;;;;;;;;20.30;99.90;;;;;;5092596;28;20014;-64
2022/07/09 13:22:31;;;;;;;;;;;20.10;99.90;;;;;;5092523;28;19997;-65
2022/07/09 13:24:56;;;;;;;;;;;20.00;99.90;;;;;;5093636;28;19928;-67
2022/07/09 13:27:22;;;;;;;;;;;19.40;99.90;;;;;;5096698;28;19924;-67
2022/07/09 13:29:48;;;;;;;;;;;19.00;99.90;;;;;;5096714;28;20102;-65
2022/07/09 13:32:13;;;;;;;;;;;18.80;99.90;;;;;;5096437;28;19920;-67
2022/07/09 13:34:39;;;;;;;;;;;18.60;99.90;;;;;;5095233;28;19927;-64
2022/07/09 13:37:04;;;;;;;;;;;18.70;99.90;;;;;;5096545;28;19923;-64
2022/07/09 13:39:30;;;;;;;;;;;18.80;99.90;;;;;;5095199;28;20284;-66
2022/07/09 13:41:56;;;;;;;;;;;18.50;99.90;;;;;;5096508;28;19924;-64
2022/07/09 13:44:21;;;;;;;;;;;18.60;99.90;;;;;;5096129;28;20061;-66
2022/07/09 13:46:47;;;;;;;;;;;18.50;99.90;;;;;;5096303;28;19927;-64
2022/07/09 13:49:12;;;;;;;;;;;18.40;99.90;;;;;;5095990;28;19928;-66
2022/07/09 13:51:38;;;;;;;;;;;18.60;99.90;;;;;;5096209;28;19924;-64
2022/07/09 13:54:04;;;;;;;;;;;18.70;99.90;;;;;;5096128;28;20386;-64
2022/07/09 13:56:30;;;;;;;;;;;18.40;99.90;;;;;;5096145;28;19920;-64
2022/07/09 13:58:55;;;;;;;;;;;18.70;99.90;;;;;;5096086;28;19927;-61
2022/07/09 14:01:21;;;;;;;;;;;18.70;99.90;;;;;;5096158;28;19923;-64
2022/07/09 14:03:47;;;;;;;;;;;18.80;99.90;;;;;;5096131;28;19927;-66
2022/07/09 14:06:13;;;;;;;;;;;19.00;99.90;;;;;;5095971;28;19920;-65
2022/07/09 14:08:38;;;;;;;;;;;19.20;99.90;;;;;;5095936;28;19920;-64
2022/07/09 14:11:04;;;;;;;;;;;19.40;99.90;;;;;;5094919;28;19928;-65